sensor_id;sensor_type;location;lat;lon;timestamp;pressure;altitude;pressure_sealevel;temperature
14023;BMP180;7086;48.116;11.580;2023-11-21T00:00:57;94792.00;;;12.60
14023;BMP180;7086;48.116;11.580;2023-11-21T00:03:29;94750.00;;;12.40
14023;BMP180;7086;48.116;11.580;2023-11-21T00:05:56;94793.00;;;12.50
14023;BMP180;7086;48.116;11.580;2023-11-21T00:08:22;94782.00;;;12.50
14023;BMP180;7086;48.116;11.580;2023-11-21T00:10:49;94774.00;;;12.50
14023;BMP180;7086;48.116;11.580;2023-11-21T00:13:16;94703.00;;;12.50
14023;BMP180;7086;48.116;11.580;2023-11-21T00:15:44;94803.00;;;12.40
14023;BMP180;7086;48.116;11.580;2023-11-21T00:18:11;94774.00;;;12.40
14023;BMP180;7086;48.116;11.580;2023-11-21T00:20:39;94761.00;;;12.40
14023;BMP180;7086;48.116;11.580;2023-11-21T00:23:06;94760.00;;;12.40
14023;BMP180;7086;48.116;11.580;2023-11-21T00:25:34;94744.00;;;12.30
14023;BMP180;7086;48.116;11.580;2023-11-21T00:28:00;94759.00;;;12.20
14023;BMP180;7086;48.116;11.580;2023-11-21T00:30:28;94755.00;;;12.30
14023;BMP180;7086;48.116;11.580;2023-11-21T00:32:57;94747.00;;;12.20
14023;BMP180;7086;48.116;11.580;2023-11-21T00:35:24;94744.00;;;12.30
14023;BMP180;7086;48.116;11.580;2023-11-21T00:38:11;94744.00;;;12.30
14023;BMP180;7086;48.116;11.580;2023-11-21T00:40:57;94755.00;;;12.20
14023;BMP180;7086;48.116;11.580;2023-11-21T00:43:44;94623.00;;;12.20
14023;BMP180;7086;48.116;11.580;2023-11-21T00:46:31;94732.00;;;12.20
14023;BMP180;7086;48.116;11.580;2023-11-21T00:49:19;94733.00;;;12.20
14023;BMP180;7086;48.116;11.580;2023-11-21T00:52:06;94735.00;;;12.10
14023;BMP180;7086;48.116;11.580;2023-11-21T00:54:53;94720.00;;;12.10
14023;BMP180;7086;48.116;11.580;2023-11-21T00:57:40;94735.00;;;12.00
14023;BMP180;7086;48.116;11.580;2023-11-21T01:00:26;94731.00;;;12.10
14023;BMP180;7086;48.116;11.580;2023-11-21T01:02:53;94731.00;;;12.10
14023;BMP180;7086;48.116;11.580;2023-11-21T01:05:21;94747.00;;;12.10
14023;BMP180;7086;48.116;11.580;2023-11-21T01:07:48;94731.00;;;12.10
14023;BMP180;7086;48.116;11.580;2023-11-21T01:10:15;94736.00;;;12.00
14023;BMP180;7086;48.116;11.580;2023-11-21T01:12:42;94737.00;;;12.00
14023;BMP180;7086;48.116;11.580;2023-11-21T01:15:09;94709.00;;;11.90
14023;BMP180;7086;48.116;11.580;2023-11-21T01:17:38;94741.00;;;11.90
14023;BMP180;7086;48.116;11.580;2023-11-21T01:20:07;94740.00;;;11.90
14023;BMP180;7086;48.116;11.580;2023-11-21T01:22:39;94738.00;;;11.90
14023;BMP180;7086;48.116;11.580;2023-11-21T01:25:06;94693.00;;;11.90
14023;BMP180;7086;48.116;11.580;2023-11-21T01:27:33;94722.00;;;11.90
14023;BMP180;7086;48.116;11.580;2023-11-21T01:30:00;94700.00;;;11.90
14023;BMP180;7086;48.116;11.580;2023-11-21T01:32:27;94730.00;;;11.90
14023;BMP180;7086;48.116;11.580;2023-11-21T01:34:54;94727.00;;;11.90
14023;BMP180;7086;48.116;11.580;2023-11-21T01:37:21;94718.00;;;11.90
14023;BMP180;7086;48.116;11.580;2023-11-21T01:39:49;94716.00;;;11.90
14023;BMP180;7086;48.116;11.580;2023-11-21T01:42:16;94724.00;;;11.80
14023;BMP180;7086;48.116;11.580;2023-11-21T01:44:44;94736.00;;;11.90
14023;BMP180;7086;48.116;11.580;2023-11-21T01:47:13;94736.00;;;11.90
14023;BMP180;7086;48.116;11.580;2023-11-21T01:49:43;94730.00;;;11.80
14023;BMP180;7086;48.116;11.580;2023-11-21T01:52:10;94720.00;;;11.90
14023;BMP180;7086;48.116;11.580;2023-11-21T01:54:38;94733.00;;;11.90
14023;BMP180;7086;48.116;11.580;2023-11-21T01:57:06;94727.00;;;11.80
14023;BMP180;7086;48.116;11.580;2023-11-21T01:59:35;94748.00;;;11.80
14023;BMP180;7086;48.116;11.580;2023-11-21T02:02:03;94706.00;;;12.00
14023;BMP180;7086;48.116;11.580;2023-11-21T02:04:30;94739.00;;;12.00
14023;BMP180;7086;48.116;11.580;2023-11-21T02:06:58;94736.00;;;12.00
14023;BMP180;7086;48.116;11.580;2023-11-21T02:09:25;94741.00;;;12.10
14023;BMP180;7086;48.116;11.580;2023-11-21T02:11:52;94743.00;;;12.10
14023;BMP180;7086;48.116;11.580;2023-11-21T02:14:21;94711.00;;;12.20
14023;BMP180;7086;48.116;11.580;2023-11-21T02:16:48;94741.00;;;12.20
14023;BMP180;7086;48.116;11.580;2023-11-21T02:19:18;94749.00;;;12.20
14023;BMP180;7086;48.116;11.580;2023-11-21T02:21:49;94745.00;;;12.20
14023;BMP180;7086;48.116;11.580;2023-11-21T02:24:18;94742.00;;;12.30
14023;BMP180;7086;48.116;11.580;2023-11-21T02:26:45;94743.00;;;12.30
14023;BMP180;7086;48.116;11.580;2023-11-21T02:29:12;94714.00;;;12.30
14023;BMP180;7086;48.116;11.580;2023-11-21T02:31:43;94757.00;;;12.30
14023;BMP180;7086;48.116;11.580;2023-11-21T02:34:13;94739.00;;;12.20
14023;BMP180;7086;48.116;11.580;2023-11-21T02:36:40;94759.00;;;12.30
14023;BMP180;7086;48.116;11.580;2023-11-21T02:39:08;94749.00;;;12.20
14023;BMP180;7086;48.116;11.580;2023-11-21T02:41:37;94742.00;;;12.20
14023;BMP180;7086;48.116;11.580;2023-11-21T02:44:04;94738.00;;;12.30
14023;BMP180;7086;48.116;11.580;2023-11-21T02:46:32;94714.00;;;12.30
14023;BMP180;7086;48.116;11.580;2023-11-21T02:48:59;94740.00;;;12.10
14023;BMP180;7086;48.116;11.580;2023-11-21T02:51:26;94701.00;;;12.10
14023;BMP180;7086;48.116;11.580;2023-11-21T02:53:53;94724.00;;;12.20
14023;BMP180;7086;48.116;11.580;2023-11-21T02:56:20;94717.00;;;12.10
14023;BMP180;7086;48.116;11.580;2023-11-21T02:58:48;94681.00;;;12.20
14023;BMP180;7086;48.116;11.580;2023-11-21T03:01:15;94705.00;;;12.10
14023;BMP180;7086;48.116;11.580;2023-11-21T03:03:42;94719.00;;;12.00
14023;BMP180;7086;48.116;11.580;2023-11-21T03:06:09;94691.00;;;12.00
14023;BMP180;7086;48.116;11.580;2023-11-21T03:08:36;94712.00;;;12.00
14023;BMP180;7086;48.116;11.580;2023-11-21T03:11:03;94706.00;;;12.00
14023;BMP180;7086;48.116;11.580;2023-11-21T03:13:30;94634.00;;;12.00
14023;BMP180;7086;48.116;11.580;2023-11-21T03:15:58;94692.00;;;11.90
14023;BMP180;7086;48.116;11.580;2023-11-21T03:18:25;94715.00;;;11.90
14023;BMP180;7086;48.116;11.580;2023-11-21T03:20:52;94707.00;;;11.90
14023;BMP180;7086;48.116;11.580;2023-11-21T03:23:19;94682.00;;;11.90
14023;BMP180;7086;48.116;11.580;2023-11-21T03:25:46;94711.00;;;11.90
14023;BMP180;7086;48.116;11.580;2023-11-21T03:28:12;94708.00;;;11.90
14023;BMP180;7086;48.116;11.580;2023-11-21T03:30:39;94681.00;;;11.90
14023;BMP180;7086;48.116;11.580;2023-11-21T03:33:07;94679.00;;;11.80
14023;BMP180;7086;48.116;11.580;2023-11-21T03:35:34;94650.00;;;11.70
14023;BMP180;7086;48.116;11.580;2023-11-21T03:38:01;94701.00;;;11.80
14023;BMP180;7086;48.116;11.580;2023-11-21T03:40:28;94701.00;;;11.80
14023;BMP180;7086;48.116;11.580;2023-11-21T03:42:56;94704.00;;;11.70
14023;BMP180;7086;48.116;11.580;2023-11-21T03:45:23;94705.00;;;11.70
14023;BMP180;7086;48.116;11.580;2023-11-21T03:47:50;94696.00;;;11.80
14023;BMP180;7086;48.116;11.580;2023-11-21T03:50:18;94707.00;;;11.80
14023;BMP180;7086;48.116;11.580;2023-11-21T03:52:45;94720.00;;;11.80
14023;BMP180;7086;48.116;11.580;2023-11-21T03:55:12;94697.00;;;11.80
14023;BMP180;7086;48.116;11.580;2023-11-21T03:57:40;94711.00;;;11.60
14023;BMP180;7086;48.116;11.580;2023-11-21T04:00:08;94706.00;;;11.70
14023;BMP180;7086;48.116;11.580;2023-11-21T04:02:35;94715.00;;;11.70
14023;BMP180;7086;48.116;11.580;2023-11-21T04:05:02;94708.00;;;11.70
14023;BMP180;7086;48.116;11.580;2023-11-21T04:07:31;94712.00;;;11.60
14023;BMP180;7086;48.116;11.580;2023-11-21T04:09:58;94684.00;;;11.50
14023;BMP180;7086;48.116;11.580;2023-11-21T04:12:25;94718.00;;;11.60
14023;BMP180;7086;48.116;11.580;2023-11-21T04:14:52;94711.00;;;11.50
14023;BMP180;7086;48.116;11.580;2023-11-21T04:17:19;94707.00;;;11.60
14023;BMP180;7086;48.116;11.580;2023-11-21T04:19:46;94708.00;;;11.50
14023;BMP180;7086;48.116;11.580;2023-11-21T04:22:13;94712.00;;;11.60
14023;BMP180;7086;48.116;11.580;2023-11-21T04:24:41;94712.00;;;11.40
14023;BMP180;7086;48.116;11.580;2023-11-21T04:27:07;94681.00;;;11.50
14023;BMP180;7086;48.116;11.580;2023-11-21T04:29:34;94696.00;;;11.60
14023;BMP180;7086;48.116;11.580;2023-11-21T04:32:01;94711.00;;;11.40
14023;BMP180;7086;48.116;11.580;2023-11-21T04:34:28;94713.00;;;11.60
14023;BMP180;7086;48.116;11.580;2023-11-21T04:36:56;94716.00;;;11.60
14023;BMP180;7086;48.116;11.580;2023-11-21T04:39:23;94721.00;;;11.60
14023;BMP180;7086;48.116;11.580;2023-11-21T04:41:51;94712.00;;;11.70
14023;BMP180;7086;48.116;11.580;2023-11-21T04:44:18;94718.00;;;11.60
14023;BMP180;7086;48.116;11.580;2023-11-21T04:46:45;94713.00;;;11.60
14023;BMP180;7086;48.116;11.580;2023-11-21T04:49:11;94715.00;;;11.70
14023;BMP180;7086;48.116;11.580;2023-11-21T04:51:38;94710.00;;;11.60
14023;BMP180;7086;48.116;11.580;2023-11-21T04:54:05;94724.00;;;11.70
14023;BMP180;7086;48.116;11.580;2023-11-21T04:56:32;94714.00;;;11.70
14023;BMP180;7086;48.116;11.580;2023-11-21T04:59:00;94695.00;;;11.70
14023;BMP180;7086;48.116;11.580;2023-11-21T05:01:27;94720.00;;;11.70
14023;BMP180;7086;48.116;11.580;2023-11-21T05:03:53;94723.00;;;11.80
14023;BMP180;7086;48.116;11.580;2023-11-21T05:06:22;94714.00;;;11.70
14023;BMP180;7086;48.116;11.580;2023-11-21T05:08:50;94716.00;;;11.80
14023;BMP180;7086;48.116;11.580;2023-11-21T05:11:24;94719.00;;;11.70
14023;BMP180;7086;48.116;11.580;2023-11-21T05:13:50;94725.00;;;11.80
14023;BMP180;7086;48.116;11.580;2023-11-21T05:16:19;94712.00;;;11.80
14023;BMP180;7086;48.116;11.580;2023-11-21T05:18:47;94727.00;;;11.80
14023;BMP180;7086;48.116;11.580;2023-11-21T05:21:16;94713.00;;;11.80
14023;BMP180;7086;48.116;11.580;2023-11-21T05:23:42;94707.00;;;11.80
14023;BMP180;7086;48.116;11.580;2023-11-21T05:26:09;94711.00;;;11.80
14023;BMP180;7086;48.116;11.580;2023-11-21T05:28:36;94682.00;;;11.80
14023;BMP180;7086;48.116;11.580;2023-11-21T05:31:03;94728.00;;;11.80
14023;BMP180;7086;48.116;11.580;2023-11-21T05:33:31;94739.00;;;11.80
14023;BMP180;7086;48.116;11.580;2023-11-21T05:35:59;94729.00;;;11.80
14023;BMP180;7086;48.116;11.580;2023-11-21T05:38:26;94734.00;;;11.80
14023;BMP180;7086;48.116;11.580;2023-11-21T05:40:53;94740.00;;;11.80
14023;BMP180;7086;48.116;11.580;2023-11-21T05:43:19;94739.00;;;11.90
14023;BMP180;7086;48.116;11.580;2023-11-21T05:45:46;94739.00;;;11.90
14023;BMP180;7086;48.116;11.580;2023-11-21T05:48:13;94725.00;;;11.90
14023;BMP180;7086;48.116;11.580;2023-11-21T05:50:42;94756.00;;;11.90
14023;BMP180;7086;48.116;11.580;2023-11-21T05:53:09;94734.00;;;11.90
14023;BMP180;7086;48.116;11.580;2023-11-21T05:55:36;94734.00;;;11.90
14023;BMP180;7086;48.116;11.580;2023-11-21T05:58:04;94736.00;;;11.90
14023;BMP180;7086;48.116;11.580;2023-11-21T06:00:32;94746.00;;;12.00
14023;BMP180;7086;48.116;11.580;2023-11-21T06:02:59;94745.00;;;11.90
14023;BMP180;7086;48.116;11.580;2023-11-21T06:05:26;94685.00;;;12.00
14023;BMP180;7086;48.116;11.580;2023-11-21T06:07:55;94749.00;;;12.00
14023;BMP180;7086;48.116;11.580;2023-11-21T06:10:24;94732.00;;;12.00
14023;BMP180;7086;48.116;11.580;2023-11-21T06:12:51;94757.00;;;11.90
14023;BMP180;7086;48.116;11.580;2023-11-21T06:15:17;94733.00;;;12.00
14023;BMP180;7086;48.116;11.580;2023-11-21T06:17:46;94764.00;;;12.00
14023;BMP180;7086;48.116;11.580;2023-11-21T06:20:17;94762.00;;;11.90
14023;BMP180;7086;48.116;11.580;2023-11-21T06:22:45;94759.00;;;12.00
14023;BMP180;7086;48.116;11.580;2023-11-21T06:25:14;94795.00;;;11.90
14023;BMP180;7086;48.116;11.580;2023-11-21T06:27:43;94748.00;;;12.00
14023;BMP180;7086;48.116;11.580;2023-11-21T06:30:11;94781.00;;;12.00
14023;BMP180;7086;48.116;11.580;2023-11-21T06:32:39;94781.00;;;11.90
14023;BMP180;7086;48.116;11.580;2023-11-21T06:35:07;94773.00;;;12.10
14023;BMP180;7086;48.116;11.580;2023-11-21T06:37:35;94720.00;;;12.10
14023;BMP180;7086;48.116;11.580;2023-11-21T06:40:02;94786.00;;;12.20
14023;BMP180;7086;48.116;11.580;2023-11-21T06:42:32;94784.00;;;12.20
14023;BMP180;7086;48.116;11.580;2023-11-21T06:44:59;94769.00;;;12.20
14023;BMP180;7086;48.116;11.580;2023-11-21T06:47:29;94774.00;;;12.20
14023;BMP180;7086;48.116;11.580;2023-11-21T06:49:56;94783.00;;;12.20
14023;BMP180;7086;48.116;11.580;2023-11-21T06:52:23;94757.00;;;12.10
14023;BMP180;7086;48.116;11.580;2023-11-21T06:54:49;94788.00;;;12.30
14023;BMP180;7086;48.116;11.580;2023-11-21T06:57:16;94794.00;;;12.20
14023;BMP180;7086;48.116;11.580;2023-11-21T06:59:45;94762.00;;;12.30
14023;BMP180;7086;48.116;11.580;2023-11-21T07:02:12;94804.00;;;12.30
14023;BMP180;7086;48.116;11.580;2023-11-21T07:04:39;94772.00;;;12.30
14023;BMP180;7086;48.116;11.580;2023-11-21T07:07:06;94792.00;;;12.30
14023;BMP180;7086;48.116;11.580;2023-11-21T07:09:33;94803.00;;;12.30
14023;BMP180;7086;48.116;11.580;2023-11-21T07:12:00;94801.00;;;12.30
14023;BMP180;7086;48.116;11.580;2023-11-21T07:14:29;94797.00;;;12.40
14023;BMP180;7086;48.116;11.580;2023-11-21T07:16:57;94801.00;;;12.30
14023;BMP180;7086;48.116;11.580;2023-11-21T07:19:24;94805.00;;;12.30
14023;BMP180;7086;48.116;11.580;2023-11-21T07:21:51;94813.00;;;12.40
14023;BMP180;7086;48.116;11.580;2023-11-21T07:24:18;94781.00;;;12.40
14023;BMP180;7086;48.116;11.580;2023-11-21T07:26:45;94813.00;;;12.30
14023;BMP180;7086;48.116;11.580;2023-11-21T07:29:13;94789.00;;;12.40
14023;BMP180;7086;48.116;11.580;2023-11-21T07:31:40;94779.00;;;12.40
14023;BMP180;7086;48.116;11.580;2023-11-21T07:34:09;94790.00;;;12.40
14023;BMP180;7086;48.116;11.580;2023-11-21T07:36:37;94814.00;;;12.40
14023;BMP180;7086;48.116;11.580;2023-11-21T07:39:04;94786.00;;;12.50
14023;BMP180;7086;48.116;11.580;2023-11-21T07:41:32;94820.00;;;12.50
14023;BMP180;7086;48.116;11.580;2023-11-21T07:43:59;94823.00;;;12.50
14023;BMP180;7086;48.116;11.580;2023-11-21T07:46:26;94727.00;;;12.50
14023;BMP180;7086;48.116;11.580;2023-11-21T07:48:54;94785.00;;;12.60
14023;BMP180;7086;48.116;11.580;2023-11-21T07:51:22;94816.00;;;12.50
14023;BMP180;7086;48.116;11.580;2023-11-21T07:53:49;94833.00;;;12.70
14023;BMP180;7086;48.116;11.580;2023-11-21T07:56:16;94826.00;;;12.70
14023;BMP180;7086;48.116;11.580;2023-11-21T07:58:43;94795.00;;;12.80
14023;BMP180;7086;48.116;11.580;2023-11-21T08:01:10;94797.00;;;12.70
14023;BMP180;7086;48.116;11.580;2023-11-21T08:03:37;94835.00;;;12.80
14023;BMP180;7086;48.116;11.580;2023-11-21T08:06:04;94825.00;;;12.80
14023;BMP180;7086;48.116;11.580;2023-11-21T08:08:33;94804.00;;;12.90
14023;BMP180;7086;48.116;11.580;2023-11-21T08:10:59;94834.00;;;12.80
14023;BMP180;7086;48.116;11.580;2023-11-21T08:13:27;94833.00;;;12.90
14023;BMP180;7086;48.116;11.580;2023-11-21T08:15:57;94821.00;;;13.00
14023;BMP180;7086;48.116;11.580;2023-11-21T08:18:28;94769.00;;;13.00
14023;BMP180;7086;48.116;11.580;2023-11-21T08:20:55;94836.00;;;12.90
14023;BMP180;7086;48.116;11.580;2023-11-21T08:23:22;94837.00;;;13.10
14023;BMP180;7086;48.116;11.580;2023-11-21T08:25:52;94828.00;;;13.10
14023;BMP180;7086;48.116;11.580;2023-11-21T08:28:19;94824.00;;;13.10
14023;BMP180;7086;48.116;11.580;2023-11-21T08:30:48;94835.00;;;13.20
14023;BMP180;7086;48.116;11.580;2023-11-21T08:33:15;94838.00;;;13.30
14023;BMP180;7086;48.116;11.580;2023-11-21T08:35:42;94828.00;;;13.40
14023;BMP180;7086;48.116;11.580;2023-11-21T08:38:09;94829.00;;;13.40
14023;BMP180;7086;48.116;11.580;2023-11-21T08:40:36;94837.00;;;13.30
14023;BMP180;7086;48.116;11.580;2023-11-21T08:43:05;94818.00;;;13.40
14023;BMP180;7086;48.116;11.580;2023-11-21T08:45:54;94816.00;;;13.20
14023;BMP180;7086;48.116;11.580;2023-11-21T08:48:22;94817.00;;;13.60
14023;BMP180;7086;48.116;11.580;2023-11-21T08:50:48;94801.00;;;13.50
14023;BMP180;7086;48.116;11.580;2023-11-21T08:53:17;94866.00;;;13.50
14023;BMP180;7086;48.116;11.580;2023-11-21T08:55:44;94809.00;;;13.70
14023;BMP180;7086;48.116;11.580;2023-11-21T08:58:12;94831.00;;;13.90
14023;BMP180;7086;48.116;11.580;2023-11-21T09:00:39;94815.00;;;13.90
14023;BMP180;7086;48.116;11.580;2023-11-21T09:03:06;94836.00;;;14.20
14023;BMP180;7086;48.116;11.580;2023-11-21T09:05:37;94813.00;;;14.40
14023;BMP180;7086;48.116;11.580;2023-11-21T09:08:05;94839.00;;;14.50
14023;BMP180;7086;48.116;11.580;2023-11-21T09:10:33;94757.00;;;14.80
14023;BMP180;7086;48.116;11.580;2023-11-21T09:13:01;94844.00;;;14.90
14023;BMP180;7086;48.116;11.580;2023-11-21T09:15:29;94854.00;;;15.10
14023;BMP180;7086;48.116;11.580;2023-11-21T09:17:56;94845.00;;;15.10
14023;BMP180;7086;48.116;11.580;2023-11-21T09:20:23;94848.00;;;15.30
14023;BMP180;7086;48.116;11.580;2023-11-21T09:22:50;94835.00;;;15.30
14023;BMP180;7086;48.116;11.580;2023-11-21T09:25:16;94789.00;;;15.50
14023;BMP180;7086;48.116;11.580;2023-11-21T09:27:46;94819.00;;;15.50
14023;BMP180;7086;48.116;11.580;2023-11-21T09:30:13;94846.00;;;15.60
14023;BMP180;7086;48.116;11.580;2023-11-21T09:32:42;94866.00;;;15.60
14023;BMP180;7086;48.116;11.580;2023-11-21T09:35:11;94874.00;;;15.60
14023;BMP180;7086;48.116;11.580;2023-11-21T09:37:39;94892.00;;;15.40
14023;BMP180;7086;48.116;11.580;2023-11-21T09:40:10;94885.00;;;15.70
14023;BMP180;7086;48.116;11.580;2023-11-21T09:42:41;94830.00;;;15.50
14023;BMP180;7086;48.116;11.580;2023-11-21T09:45:17;94850.00;;;15.60
14023;BMP180;7086;48.116;11.580;2023-11-21T09:47:47;94863.00;;;15.70
14023;BMP180;7086;48.116;11.580;2023-11-21T09:50:16;94872.00;;;15.50
14023;BMP180;7086;48.116;11.580;2023-11-21T09:52:56;94866.00;;;15.70
14023;BMP180;7086;48.116;11.580;2023-11-21T09:55:27;94829.00;;;15.80
14023;BMP180;7086;48.116;11.580;2023-11-21T09:57:56;94869.00;;;15.80
14023;BMP180;7086;48.116;11.580;2023-11-21T10:00:23;94875.00;;;15.80
14023;BMP180;7086;48.116;11.580;2023-11-21T10:02:52;94807.00;;;15.80
14023;BMP180;7086;48.116;11.580;2023-11-21T10:05:19;94853.00;;;15.80
14023;BMP180;7086;48.116;11.580;2023-11-21T10:07:49;94863.00;;;15.80
14023;BMP180;7086;48.116;11.580;2023-11-21T10:10:18;94865.00;;;15.80
14023;BMP180;7086;48.116;11.580;2023-11-21T10:12:49;94857.00;;;15.80
14023;BMP180;7086;48.116;11.580;2023-11-21T10:15:21;94873.00;;;15.90
14023;BMP180;7086;48.116;11.580;2023-11-21T10:17:49;94866.00;;;15.90
14023;BMP180;7086;48.116;11.580;2023-11-21T10:20:20;94797.00;;;15.80
14023;BMP180;7086;48.116;11.580;2023-11-21T10:22:47;94869.00;;;15.80
14023;BMP180;7086;48.116;11.580;2023-11-21T10:25:14;94870.00;;;15.80
14023;BMP180;7086;48.116;11.580;2023-11-21T10:27:42;94871.00;;;16.10
14023;BMP180;7086;48.116;11.580;2023-11-21T10:30:10;94867.00;;;16.20
14023;BMP180;7086;48.116;11.580;2023-11-21T10:32:38;94787.00;;;16.20
14023;BMP180;7086;48.116;11.580;2023-11-21T10:35:06;94836.00;;;16.30
14023;BMP180;7086;48.116;11.580;2023-11-21T10:37:37;94824.00;;;16.40
14023;BMP180;7086;48.116;11.580;2023-11-21T10:40:06;94854.00;;;16.50
14023;BMP180;7086;48.116;11.580;2023-11-21T10:42:34;94875.00;;;16.50
14023;BMP180;7086;48.116;11.580;2023-11-21T10:45:03;94870.00;;;16.40
14023;BMP180;7086;48.116;11.580;2023-11-21T10:47:35;94872.00;;;16.50
14023;BMP180;7086;48.116;11.580;2023-11-21T10:50:04;94869.00;;;16.50
14023;BMP180;7086;48.116;11.580;2023-11-21T10:52:31;94876.00;;;16.40
14023;BMP180;7086;48.116;11.580;2023-11-21T10:55:00;94832.00;;;16.40
14023;BMP180;7086;48.116;11.580;2023-11-21T10:57:29;94871.00;;;16.20
14023;BMP180;7086;48.116;11.580;2023-11-21T10:59:57;94838.00;;;16.30
14023;BMP180;7086;48.116;11.580;2023-11-21T11:02:24;94860.00;;;16.30
14023;BMP180;7086;48.116;11.580;2023-11-21T11:04:53;94809.00;;;16.30
14023;BMP180;7086;48.116;11.580;2023-11-21T11:07:21;94826.00;;;16.30
14023;BMP180;7086;48.116;11.580;2023-11-21T11:09:53;94877.00;;;16.30
14023;BMP180;7086;48.116;11.580;2023-11-21T11:12:21;94872.00;;;16.20
14023;BMP180;7086;48.116;11.580;2023-11-21T11:14:49;94855.00;;;16.20
14023;BMP180;7086;48.116;11.580;2023-11-21T11:17:16;94838.00;;;16.20
14023;BMP180;7086;48.116;11.580;2023-11-21T11:19:44;94858.00;;;16.00
14023;BMP180;7086;48.116;11.580;2023-11-21T11:22:23;94831.00;;;16.10
14023;BMP180;7086;48.116;11.580;2023-11-21T11:25:06;94807.00;;;16.10
14023;BMP180;7086;48.116;11.580;2023-11-21T11:27:48;94881.00;;;16.20
14023;BMP180;7086;48.116;11.580;2023-11-21T11:30:30;94861.00;;;16.10
14023;BMP180;7086;48.116;11.580;2023-11-21T11:33:09;94863.00;;;16.40
14023;BMP180;7086;48.116;11.580;2023-11-21T11:35:47;94857.00;;;16.40
14023;BMP180;7086;48.116;11.580;2023-11-21T11:38:17;94852.00;;;16.50
14023;BMP180;7086;48.116;11.580;2023-11-21T11:40:46;94835.00;;;16.40
14023;BMP180;7086;48.116;11.580;2023-11-21T11:43:25;94771.00;;;16.40
14023;BMP180;7086;48.116;11.580;2023-11-21T11:45:53;94858.00;;;16.40
14023;BMP180;7086;48.116;11.580;2023-11-21T11:48:22;94835.00;;;16.30
14023;BMP180;7086;48.116;11.580;2023-11-21T11:51:09;94821.00;;;16.30
14023;BMP180;7086;48.116;11.580;2023-11-21T11:53:38;94856.00;;;16.20
14023;BMP180;7086;48.116;11.580;2023-11-21T11:56:24;94857.00;;;16.20
14023;BMP180;7086;48.116;11.580;2023-11-21T11:58:54;94844.00;;;16.10
14023;BMP180;7086;48.116;11.580;2023-11-21T12:01:22;94792.00;;;16.10
14023;BMP180;7086;48.116;11.580;2023-11-21T12:04:26;94800.00;;;16.10
14023;BMP180;7086;48.116;11.580;2023-11-21T12:07:00;94834.00;;;15.70
14023;BMP180;7086;48.116;11.580;2023-11-21T12:09:29;94828.00;;;16.00
14023;BMP180;7086;48.116;11.580;2023-11-21T12:11:57;94867.00;;;15.90
14023;BMP180;7086;48.116;11.580;2023-11-21T12:14:26;94860.00;;;15.90
14023;BMP180;7086;48.116;11.580;2023-11-21T12:16:54;94800.00;;;15.80
14023;BMP180;7086;48.116;11.580;2023-11-21T12:19:21;94835.00;;;15.70
14023;BMP180;7086;48.116;11.580;2023-11-21T12:21:49;94855.00;;;15.80
14023;BMP180;7086;48.116;11.580;2023-11-21T12:24:16;94860.00;;;15.60
14023;BMP180;7086;48.116;11.580;2023-11-21T12:26:43;94833.00;;;15.70
14023;BMP180;7086;48.116;11.580;2023-11-21T12:29:10;94851.00;;;15.70
14023;BMP180;7086;48.116;11.580;2023-11-21T12:31:40;94858.00;;;15.70
14023;BMP180;7086;48.116;11.580;2023-11-21T12:34:07;94859.00;;;15.60
14023;BMP180;7086;48.116;11.580;2023-11-21T12:36:37;94847.00;;;15.70
14023;BMP180;7086;48.116;11.580;2023-11-21T12:39:04;94824.00;;;15.70
14023;BMP180;7086;48.116;11.580;2023-11-21T12:41:31;94848.00;;;15.60
14023;BMP180;7086;48.116;11.580;2023-11-21T12:43:58;94811.00;;;15.70
14023;BMP180;7086;48.116;11.580;2023-11-21T12:46:25;94790.00;;;15.70
14023;BMP180;7086;48.116;11.580;2023-11-21T12:49:00;94855.00;;;15.70
14023;BMP180;7086;48.116;11.580;2023-11-21T12:51:27;94815.00;;;15.80
14023;BMP180;7086;48.116;11.580;2023-11-21T12:53:55;94859.00;;;15.90
14023;BMP180;7086;48.116;11.580;2023-11-21T12:56:22;94853.00;;;15.80
14023;BMP180;7086;48.116;11.580;2023-11-21T12:58:50;94802.00;;;15.90
14023;BMP180;7086;48.116;11.580;2023-11-21T13:01:17;94894.00;;;16.00
14023;BMP180;7086;48.116;11.580;2023-11-21T13:03:48;94871.00;;;15.80
14023;BMP180;7086;48.116;11.580;2023-11-21T13:06:19;94875.00;;;15.70
14023;BMP180;7086;48.116;11.580;2023-11-21T13:08:50;94875.00;;;15.40
14023;BMP180;7086;48.116;11.580;2023-11-21T13:11:17;94883.00;;;15.20
14023;BMP180;7086;48.116;11.580;2023-11-21T13:13:45;94858.00;;;14.90
14023;BMP180;7086;48.116;11.580;2023-11-21T13:16:14;94841.00;;;14.70
14023;BMP180;7086;48.116;11.580;2023-11-21T13:18:41;94826.00;;;14.40
14023;BMP180;7086;48.116;11.580;2023-11-21T13:21:09;94873.00;;;14.30
14023;BMP180;7086;48.116;11.580;2023-11-21T13:23:40;94873.00;;;14.20
14023;BMP180;7086;48.116;11.580;2023-11-21T13:26:08;94876.00;;;14.10
14023;BMP180;7086;48.116;11.580;2023-11-21T13:28:35;94852.00;;;14.00
14023;BMP180;7086;48.116;11.580;2023-11-21T13:31:04;94870.00;;;13.90
14023;BMP180;7086;48.116;11.580;2023-11-21T13:33:47;94882.00;;;13.80
14023;BMP180;7086;48.116;11.580;2023-11-21T13:36:20;94886.00;;;13.70
14023;BMP180;7086;48.116;11.580;2023-11-21T13:38:50;94873.00;;;13.60
14023;BMP180;7086;48.116;11.580;2023-11-21T13:41:19;94890.00;;;13.60
14023;BMP180;7086;48.116;11.580;2023-11-21T13:43:53;94889.00;;;13.60
14023;BMP180;7086;48.116;11.580;2023-11-21T13:46:28;94830.00;;;13.60
14023;BMP180;7086;48.116;11.580;2023-11-21T13:49:00;94887.00;;;13.40
14023;BMP180;7086;48.116;11.580;2023-11-21T13:51:27;94883.00;;;13.50
14023;BMP180;7086;48.116;11.580;2023-11-21T13:54:06;94887.00;;;13.50
14023;BMP180;7086;48.116;11.580;2023-11-21T13:56:35;94854.00;;;13.50
14023;BMP180;7086;48.116;11.580;2023-11-21T13:59:02;94906.00;;;13.50
14023;BMP180;7086;48.116;11.580;2023-11-21T14:01:38;94869.00;;;13.50
14023;BMP180;7086;48.116;11.580;2023-11-21T14:04:20;94906.00;;;13.40
14023;BMP180;7086;48.116;11.580;2023-11-21T14:07:05;94844.00;;;13.50
14023;BMP180;7086;48.116;11.580;2023-11-21T14:09:49;94930.00;;;13.40
14023;BMP180;7086;48.116;11.580;2023-11-21T14:12:18;94910.00;;;13.50
14023;BMP180;7086;48.116;11.580;2023-11-21T14:14:44;94914.00;;;13.40
14023;BMP180;7086;48.116;11.580;2023-11-21T14:17:13;94873.00;;;13.40
14023;BMP180;7086;48.116;11.580;2023-11-21T14:19:39;94922.00;;;13.30